LGBLLGSK

Guest
Details From LGBL - NEA ANCHIALOS
To LGSK - Skiathos Alexandros Papadiamantis
Flight Number -
Tags generated
Created
Modified
Stats Distance 33 nm / 62 km
Max Altitude 0 ft / 0 m
Waypoints 3
Social Downloads 0
Likes 0
Share VATSIM

Download

Looking for another format? Having issues loading an existing format? Contact us
Advertisement - Login to hide

Notes

Basic altitude profile: - Ascent Rate: 2500ft/min - Ascent Speed: 250kts - Cruise Altitude: 35000ft - Cruise Speed: 420kts - Descent Rate: 1500ft/min - Descent Speed: 250kts

Route

LGBL AGH LGSK

ID Type Via Altitude Latitude Longitude Leg Dist Tot Dist Heading (true) Name
O LGBL APT - 0 ft / 0 m 39.21949˚ 22.79447˚ - 0 nm - NEA ANCHIALOS
AGH VOR - 0 ft / 0 m 39.21622˚ 22.79192˚ 0 nm 0 nm 211° / 211° ANCHIALOS VOR-DME
O LGSK APT - 0 ft / 0 m 39.17710˚ 23.50368˚ 33 nm 33 nm 94° / 94° Skiathos Alexandros Papadiamantis

Altitude Profile

Advertisement - Login to hide

LGBL

Details ICAO LGBL (VOL)
Name NEA ANCHIALOS
Region Greece
Timezone Europe/Athens (UTC+2.0)
Stats Elevation 83 ft / 25 m (AMSL)
Location 39.219486° 22.794466°
Runways 1
Magnetic Variation 4.464° E

METAR

LGBL 121220Z 08004KT 9999 FEW040 16/09 Q1021

Decode

TAF

Not found

Departure Runways

ID Width Length Bearing (true) Bearing (mag) Surface Threshold Offset Overrun Length
08 148 ft / 45 m 9,033 ft / 2,753 m 81.43° 76.97° Asphalt 0 ft / 0 m 1,020 ft / 311 m
26 148 ft / 45 m 9,033 ft / 2,753 m 261.45° 256.99° Asphalt 0 ft / 0 m 960 ft / 293 m

LGSK

Details ICAO LGSK (JSI)
Name Skiathos Alexandros Papadiamantis
Region Greece
Timezone Europe/Athens (UTC+2.0)
Stats Elevation 54 ft / 16 m (AMSL)
Location 39.177100° 23.503677°
Runways 1
Magnetic Variation 4.553° E

METAR

LGSK 121150Z 19004KT CAVOK 18/12 Q1020

Decode

TAF

Not found

Destination Runways

ID Width Length Bearing (true) Bearing (mag) Surface Threshold Offset Overrun Length
02 98 ft / 30 m 5,535 ft / 1,687 m 18.96° 14.41° Asphalt 190 ft / 58 m 0 ft / 0 m
20 98 ft / 30 m 5,535 ft / 1,687 m 198.97° 194.42° Asphalt 0 ft / 0 m 242 ft / 74 m

Popular Alternatives